sensor_id;sensor_type;location;lat;lon;timestamp;temperature;humidity
30572;DHT22;17348;50.948;10.696;2022-07-10T00:00:44;14.00;99.90
30572;DHT22;17348;50.948;10.696;2022-07-10T00:03:46;14.00;99.90
30572;DHT22;17348;50.948;10.696;2022-07-10T00:06:50;14.00;99.90
30572;DHT22;17348;50.948;10.696;2022-07-10T00:09:53;13.90;99.90
30572;DHT22;17348;50.948;10.696;2022-07-10T00:12:55;14.00;99.90
30572;DHT22;17348;50.948;10.696;2022-07-10T00:15:58;14.00;99.90
30572;DHT22;17348;50.948;10.696;2022-07-10T00:19:02;14.00;99.90
30572;DHT22;17348;50.948;10.696;2022-07-10T00:22:04;13.90;99.90
30572;DHT22;17348;50.948;10.696;2022-07-10T00:25:10;14.00;99.90
30572;DHT22;17348;50.948;10.696;2022-07-10T00:28:14;13.90;99.90
30572;DHT22;17348;50.948;10.696;2022-07-10T00:31:18;14.00;99.90
30572;DHT22;17348;50.948;10.696;2022-07-10T00:34:20;13.90;99.90
30572;DHT22;17348;50.948;10.696;2022-07-10T00:37:22;13.90;99.90
30572;DHT22;17348;50.948;10.696;2022-07-10T00:40:25;13.90;99.90
30572;DHT22;17348;50.948;10.696;2022-07-10T00:43:27;13.80;99.90
30572;DHT22;17348;50.948;10.696;2022-07-10T00:46:31;13.80;99.90
30572;DHT22;17348;50.948;10.696;2022-07-10T00:49:38;13.80;99.90
30572;DHT22;17348;50.948;10.696;2022-07-10T00:52:40;13.80;99.90
30572;DHT22;17348;50.948;10.696;2022-07-10T00:55:43;13.80;99.90
30572;DHT22;17348;50.948;10.696;2022-07-10T00:58:46;13.80;99.90
30572;DHT22;17348;50.948;10.696;2022-07-10T01:01:49;13.90;99.90
30572;DHT22;17348;50.948;10.696;2022-07-10T01:04:52;13.90;99.90
30572;DHT22;17348;50.948;10.696;2022-07-10T01:07:54;14.00;99.90
30572;DHT22;17348;50.948;10.696;2022-07-10T01:10:57;14.00;99.90
30572;DHT22;17348;50.948;10.696;2022-07-10T01:14:00;14.00;99.90
30572;DHT22;17348;50.948;10.696;2022-07-10T01:17:04;14.10;99.90
30572;DHT22;17348;50.948;10.696;2022-07-10T01:20:08;14.10;99.90
30572;DHT22;17348;50.948;10.696;2022-07-10T01:23:12;14.10;99.90
30572;DHT22;17348;50.948;10.696;2022-07-10T01:26:14;14.20;99.90
30572;DHT22;17348;50.948;10.696;2022-07-10T01:29:16;14.20;99.90
30572;DHT22;17348;50.948;10.696;2022-07-10T01:32:18;14.20;99.90
30572;DHT22;17348;50.948;10.696;2022-07-10T01:35:21;14.30;99.90
30572;DHT22;17348;50.948;10.696;2022-07-10T01:38:24;14.20;99.90
30572;DHT22;17348;50.948;10.696;2022-07-10T01:41:27;14.20;99.90
30572;DHT22;17348;50.948;10.696;2022-07-10T01:44:29;14.20;99.90
30572;DHT22;17348;50.948;10.696;2022-07-10T01:47:31;14.20;99.90
30572;DHT22;17348;50.948;10.696;2022-07-10T01:50:34;14.20;99.90
30572;DHT22;17348;50.948;10.696;2022-07-10T01:53:38;14.10;99.90
30572;DHT22;17348;50.948;10.696;2022-07-10T01:56:40;14.10;99.90
30572;DHT22;17348;50.948;10.696;2022-07-10T01:59:43;14.10;99.90
30572;DHT22;17348;50.948;10.696;2022-07-10T02:02:45;14.10;99.90
30572;DHT22;17348;50.948;10.696;2022-07-10T02:06:07;14.10;99.90
30572;DHT22;17348;50.948;10.696;2022-07-10T02:09:10;14.10;99.90
30572;DHT22;17348;50.948;10.696;2022-07-10T02:12:15;14.10;99.90
30572;DHT22;17348;50.948;10.696;2022-07-10T02:15:18;14.10;99.90
30572;DHT22;17348;50.948;10.696;2022-07-10T02:18:20;14.10;99.90
30572;DHT22;17348;50.948;10.696;2022-07-10T02:21:22;14.10;99.90
30572;DHT22;17348;50.948;10.696;2022-07-10T02:24:26;14.10;99.90
30572;DHT22;17348;50.948;10.696;2022-07-10T02:27:28;14.20;99.90
30572;DHT22;17348;50.948;10.696;2022-07-10T02:30:32;14.20;99.90
30572;DHT22;17348;50.948;10.696;2022-07-10T02:33:34;14.20;99.90
30572;DHT22;17348;50.948;10.696;2022-07-10T02:36:38;14.10;99.90
30572;DHT22;17348;50.948;10.696;2022-07-10T02:39:41;14.00;99.90
30572;DHT22;17348;50.948;10.696;2022-07-10T02:42:44;13.90;99.90
30572;DHT22;17348;50.948;10.696;2022-07-10T02:45:46;13.90;99.90
30572;DHT22;17348;50.948;10.696;2022-07-10T02:48:48;13.80;99.90
30572;DHT22;17348;50.948;10.696;2022-07-10T02:51:50;13.70;99.90
30572;DHT22;17348;50.948;10.696;2022-07-10T02:54:55;13.60;99.90
30572;DHT22;17348;50.948;10.696;2022-07-10T02:57:57;13.50;99.90
30572;DHT22;17348;50.948;10.696;2022-07-10T03:01:00;13.40;99.90
30572;DHT22;17348;50.948;10.696;2022-07-10T03:04:02;13.30;99.90
30572;DHT22;17348;50.948;10.696;2022-07-10T03:07:05;13.20;99.90
30572;DHT22;17348;50.948;10.696;2022-07-10T03:10:09;13.20;99.90
30572;DHT22;17348;50.948;10.696;2022-07-10T03:13:12;13.10;99.90
30572;DHT22;17348;50.948;10.696;2022-07-10T03:16:14;13.10;99.90
30572;DHT22;17348;50.948;10.696;2022-07-10T03:19:16;13.00;99.90
30572;DHT22;17348;50.948;10.696;2022-07-10T03:22:19;13.00;99.90
30572;DHT22;17348;50.948;10.696;2022-07-10T03:25:22;13.00;99.90
30572;DHT22;17348;50.948;10.696;2022-07-10T03:28:25;12.90;99.90
30572;DHT22;17348;50.948;10.696;2022-07-10T03:31:27;12.90;99.90
30572;DHT22;17348;50.948;10.696;2022-07-10T03:34:29;12.90;99.90
30572;DHT22;17348;50.948;10.696;2022-07-10T03:37:31;12.80;99.90
30572;DHT22;17348;50.948;10.696;2022-07-10T03:40:35;12.70;99.90
30572;DHT22;17348;50.948;10.696;2022-07-10T03:43:38;12.70;99.90
30572;DHT22;17348;50.948;10.696;2022-07-10T03:46:40;12.70;99.90
30572;DHT22;17348;50.948;10.696;2022-07-10T03:49:42;12.70;99.90
30572;DHT22;17348;50.948;10.696;2022-07-10T03:52:45;12.70;99.90
30572;DHT22;17348;50.948;10.696;2022-07-10T03:55:48;12.70;99.90
30572;DHT22;17348;50.948;10.696;2022-07-10T03:58:51;12.80;99.90
30572;DHT22;17348;50.948;10.696;2022-07-10T04:01:52;12.80;99.90
30572;DHT22;17348;50.948;10.696;2022-07-10T04:04:54;12.80;99.90
30572;DHT22;17348;50.948;10.696;2022-07-10T04:07:57;12.90;99.90
30572;DHT22;17348;50.948;10.696;2022-07-10T04:11:01;12.90;99.90
30572;DHT22;17348;50.948;10.696;2022-07-10T04:14:04;13.00;99.90
30572;DHT22;17348;50.948;10.696;2022-07-10T04:17:06;13.10;99.90
30572;DHT22;17348;50.948;10.696;2022-07-10T04:20:09;13.10;99.90
30572;DHT22;17348;50.948;10.696;2022-07-10T04:23:12;13.10;99.90
30572;DHT22;17348;50.948;10.696;2022-07-10T04:26:15;13.20;99.90
30572;DHT22;17348;50.948;10.696;2022-07-10T04:29:17;13.20;99.90
30572;DHT22;17348;50.948;10.696;2022-07-10T04:32:20;13.30;99.90
30572;DHT22;17348;50.948;10.696;2022-07-10T04:35:22;13.30;99.90
30572;DHT22;17348;50.948;10.696;2022-07-10T04:38:24;13.30;99.90
30572;DHT22;17348;50.948;10.696;2022-07-10T04:41:28;13.30;99.90
30572;DHT22;17348;50.948;10.696;2022-07-10T04:44:31;13.40;99.90
30572;DHT22;17348;50.948;10.696;2022-07-10T04:47:33;13.40;99.90
30572;DHT22;17348;50.948;10.696;2022-07-10T04:50:35;13.40;99.90
30572;DHT22;17348;50.948;10.696;2022-07-10T04:53:37;13.40;99.90
30572;DHT22;17348;50.948;10.696;2022-07-10T04:56:41;13.40;99.90
30572;DHT22;17348;50.948;10.696;2022-07-10T04:59:43;13.50;99.90
30572;DHT22;17348;50.948;10.696;2022-07-10T05:02:46;13.40;99.90
30572;DHT22;17348;50.948;10.696;2022-07-10T05:05:48;13.50;99.90
30572;DHT22;17348;50.948;10.696;2022-07-10T05:08:50;13.50;99.90
30572;DHT22;17348;50.948;10.696;2022-07-10T05:11:54;13.50;99.90
30572;DHT22;17348;50.948;10.696;2022-07-10T05:14:58;13.50;99.90
30572;DHT22;17348;50.948;10.696;2022-07-10T05:18:00;13.50;99.90
30572;DHT22;17348;50.948;10.696;2022-07-10T05:21:03;13.50;99.90
30572;DHT22;17348;50.948;10.696;2022-07-10T05:24:06;13.50;99.90
30572;DHT22;17348;50.948;10.696;2022-07-10T05:27:09;13.60;99.90
30572;DHT22;17348;50.948;10.696;2022-07-10T05:30:11;13.60;99.90
30572;DHT22;17348;50.948;10.696;2022-07-10T05:33:14;13.60;99.90
30572;DHT22;17348;50.948;10.696;2022-07-10T05:36:16;13.60;99.90
30572;DHT22;17348;50.948;10.696;2022-07-10T05:39:18;13.60;99.90
30572;DHT22;17348;50.948;10.696;2022-07-10T05:42:22;13.60;99.90
30572;DHT22;17348;50.948;10.696;2022-07-10T05:45:25;13.70;99.90
30572;DHT22;17348;50.948;10.696;2022-07-10T05:48:27;13.60;99.90
30572;DHT22;17348;50.948;10.696;2022-07-10T05:51:29;13.70;99.90
30572;DHT22;17348;50.948;10.696;2022-07-10T05:54:31;13.70;99.90
30572;DHT22;17348;50.948;10.696;2022-07-10T05:57:36;13.70;99.90
30572;DHT22;17348;50.948;10.696;2022-07-10T06:00:38;13.70;99.90
30572;DHT22;17348;50.948;10.696;2022-07-10T06:03:40;13.80;99.90
30572;DHT22;17348;50.948;10.696;2022-07-10T06:06:43;13.90;99.90
30572;DHT22;17348;50.948;10.696;2022-07-10T06:09:45;14.00;99.90
30572;DHT22;17348;50.948;10.696;2022-07-10T06:12:48;14.00;99.90
30572;DHT22;17348;50.948;10.696;2022-07-10T06:15:51;14.00;99.90
30572;DHT22;17348;50.948;10.696;2022-07-10T06:18:53;14.00;99.90
30572;DHT22;17348;50.948;10.696;2022-07-10T06:21:55;14.10;99.90
30572;DHT22;17348;50.948;10.696;2022-07-10T06:25:11;14.10;99.90
30572;DHT22;17348;50.948;10.696;2022-07-10T06:28:15;14.10;99.90
30572;DHT22;17348;50.948;10.696;2022-07-10T06:31:17;14.10;99.90
30572;DHT22;17348;50.948;10.696;2022-07-10T06:34:20;14.10;99.90
30572;DHT22;17348;50.948;10.696;2022-07-10T06:37:22;14.30;99.90
30572;DHT22;17348;50.948;10.696;2022-07-10T06:40:25;14.30;99.90
30572;DHT22;17348;50.948;10.696;2022-07-10T06:43:29;14.40;99.90
30572;DHT22;17348;50.948;10.696;2022-07-10T06:46:32;14.50;99.90
30572;DHT22;17348;50.948;10.696;2022-07-10T06:49:34;14.60;99.90
30572;DHT22;17348;50.948;10.696;2022-07-10T06:52:36;14.60;99.90
30572;DHT22;17348;50.948;10.696;2022-07-10T06:55:38;14.60;99.90
30572;DHT22;17348;50.948;10.696;2022-07-10T06:58:42;14.50;99.90
30572;DHT22;17348;50.948;10.696;2022-07-10T07:01:46;14.40;99.90
30572;DHT22;17348;50.948;10.696;2022-07-10T07:04:49;14.30;99.90
30572;DHT22;17348;50.948;10.696;2022-07-10T07:07:53;14.10;99.90
30572;DHT22;17348;50.948;10.696;2022-07-10T07:10:56;14.10;99.90
30572;DHT22;17348;50.948;10.696;2022-07-10T07:14:00;14.00;99.90
30572;DHT22;17348;50.948;10.696;2022-07-10T07:17:03;14.10;99.90
30572;DHT22;17348;50.948;10.696;2022-07-10T07:20:08;14.20;99.90
30572;DHT22;17348;50.948;10.696;2022-07-10T07:23:33;14.40;99.90
30572;DHT22;17348;50.948;10.696;2022-07-10T07:26:35;14.60;99.90
30572;DHT22;17348;50.948;10.696;2022-07-10T07:29:40;14.70;99.90
30572;DHT22;17348;50.948;10.696;2022-07-10T07:32:43;14.90;99.90
30572;DHT22;17348;50.948;10.696;2022-07-10T07:35:45;15.00;99.90
30572;DHT22;17348;50.948;10.696;2022-07-10T07:38:47;15.00;99.90
30572;DHT22;17348;50.948;10.696;2022-07-10T07:41:51;15.00;99.90
30572;DHT22;17348;50.948;10.696;2022-07-10T07:44:58;15.00;99.90
30572;DHT22;17348;50.948;10.696;2022-07-10T07:48:00;14.90;99.90
30572;DHT22;17348;50.948;10.696;2022-07-10T07:51:04;14.90;99.90
30572;DHT22;17348;50.948;10.696;2022-07-10T07:54:06;14.80;99.90
30572;DHT22;17348;50.948;10.696;2022-07-10T07:57:08;14.70;99.90
30572;DHT22;17348;50.948;10.696;2022-07-10T08:00:14;14.70;99.90
30572;DHT22;17348;50.948;10.696;2022-07-10T08:03:18;14.80;99.90
30572;DHT22;17348;50.948;10.696;2022-07-10T08:06:20;14.80;99.90
30572;DHT22;17348;50.948;10.696;2022-07-10T08:09:22;14.80;99.90
30572;DHT22;17348;50.948;10.696;2022-07-10T08:12:25;14.90;99.90
30572;DHT22;17348;50.948;10.696;2022-07-10T08:15:37;15.10;99.90
30572;DHT22;17348;50.948;10.696;2022-07-10T08:18:40;15.10;99.90
30572;DHT22;17348;50.948;10.696;2022-07-10T08:21:42;15.00;99.90
30572;DHT22;17348;50.948;10.696;2022-07-10T08:24:44;15.10;99.90
30572;DHT22;17348;50.948;10.696;2022-07-10T08:27:47;15.10;99.90
30572;DHT22;17348;50.948;10.696;2022-07-10T08:30:51;15.30;99.90
30572;DHT22;17348;50.948;10.696;2022-07-10T08:33:53;15.60;99.90
30572;DHT22;17348;50.948;10.696;2022-07-10T08:36:55;15.80;99.90
30572;DHT22;17348;50.948;10.696;2022-07-10T08:39:57;16.00;99.90
30572;DHT22;17348;50.948;10.696;2022-07-10T08:43:00;16.10;99.90
30572;DHT22;17348;50.948;10.696;2022-07-10T08:46:05;16.00;99.90
30572;DHT22;17348;50.948;10.696;2022-07-10T08:49:09;15.90;99.90
30572;DHT22;17348;50.948;10.696;2022-07-10T08:52:23;15.80;99.90
30572;DHT22;17348;50.948;10.696;2022-07-10T08:55:29;15.80;99.90
30572;DHT22;17348;50.948;10.696;2022-07-10T08:58:33;15.80;99.90
30572;DHT22;17348;50.948;10.696;2022-07-10T09:01:37;15.70;99.90
30572;DHT22;17348;50.948;10.696;2022-07-10T09:04:40;15.70;99.90
30572;DHT22;17348;50.948;10.696;2022-07-10T09:07:42;15.80;99.90
30572;DHT22;17348;50.948;10.696;2022-07-10T09:10:44;16.00;99.90
30572;DHT22;17348;50.948;10.696;2022-07-10T09:13:50;16.30;99.90
30572;DHT22;17348;50.948;10.696;2022-07-10T09:16:54;16.40;99.90
30572;DHT22;17348;50.948;10.696;2022-07-10T09:19:57;16.30;99.90
30572;DHT22;17348;50.948;10.696;2022-07-10T09:23:08;16.40;99.90
30572;DHT22;17348;50.948;10.696;2022-07-10T09:26:11;16.60;99.90
30572;DHT22;17348;50.948;10.696;2022-07-10T09:29:13;16.50;99.90
30572;DHT22;17348;50.948;10.696;2022-07-10T09:32:17;16.40;99.90
30572;DHT22;17348;50.948;10.696;2022-07-10T09:35:19;16.60;99.90
30572;DHT22;17348;50.948;10.696;2022-07-10T09:38:50;16.70;99.90
30572;DHT22;17348;50.948;10.696;2022-07-10T09:41:53;16.80;99.90
30572;DHT22;17348;50.948;10.696;2022-07-10T09:45:17;16.80;99.90
30572;DHT22;17348;50.948;10.696;2022-07-10T09:48:24;16.80;99.90
30572;DHT22;17348;50.948;10.696;2022-07-10T09:51:30;16.90;99.90
30572;DHT22;17348;50.948;10.696;2022-07-10T09:54:35;17.00;99.90
30572;DHT22;17348;50.948;10.696;2022-07-10T09:57:38;17.10;99.90
30572;DHT22;17348;50.948;10.696;2022-07-10T10:00:41;17.20;99.90
30572;DHT22;17348;50.948;10.696;2022-07-10T10:03:48;17.20;99.90
30572;DHT22;17348;50.948;10.696;2022-07-10T10:06:52;17.50;99.90
30572;DHT22;17348;50.948;10.696;2022-07-10T10:09:57;17.70;99.90
30572;DHT22;17348;50.948;10.696;2022-07-10T10:13:02;17.80;99.90
30572;DHT22;17348;50.948;10.696;2022-07-10T10:16:06;17.60;99.90
30572;DHT22;17348;50.948;10.696;2022-07-10T10:19:11;17.50;99.90
30572;DHT22;17348;50.948;10.696;2022-07-10T10:22:33;17.20;99.90
30572;DHT22;17348;50.948;10.696;2022-07-10T10:25:36;17.20;99.90
30572;DHT22;17348;50.948;10.696;2022-07-10T10:28:39;17.10;99.90
30572;DHT22;17348;50.948;10.696;2022-07-10T10:31:42;17.20;99.90
30572;DHT22;17348;50.948;10.696;2022-07-10T10:34:47;17.10;99.90
30572;DHT22;17348;50.948;10.696;2022-07-10T10:37:56;17.10;99.90
30572;DHT22;17348;50.948;10.696;2022-07-10T10:41:22;17.00;99.90
30572;DHT22;17348;50.948;10.696;2022-07-10T10:44:26;17.10;99.90
30572;DHT22;17348;50.948;10.696;2022-07-10T10:47:58;17.20;99.90
30572;DHT22;17348;50.948;10.696;2022-07-10T10:51:02;17.40;99.90
30572;DHT22;17348;50.948;10.696;2022-07-10T10:54:05;17.50;99.90
30572;DHT22;17348;50.948;10.696;2022-07-10T10:57:14;17.70;99.90
30572;DHT22;17348;50.948;10.696;2022-07-10T11:00:31;17.90;99.90
30572;DHT22;17348;50.948;10.696;2022-07-10T11:03:38;18.10;99.90
30572;DHT22;17348;50.948;10.696;2022-07-10T11:06:43;18.10;99.90
30572;DHT22;17348;50.948;10.696;2022-07-10T11:09:45;18.00;99.90
30572;DHT22;17348;50.948;10.696;2022-07-10T11:12:57;17.90;99.90
30572;DHT22;17348;50.948;10.696;2022-07-10T11:16:01;17.90;99.90
30572;DHT22;17348;50.948;10.696;2022-07-10T11:19:20;17.70;99.90
30572;DHT22;17348;50.948;10.696;2022-07-10T11:22:43;17.80;99.90
30572;DHT22;17348;50.948;10.696;2022-07-10T11:25:49;18.20;99.90
30572;DHT22;17348;50.948;10.696;2022-07-10T11:29:03;18.40;99.90
30572;DHT22;17348;50.948;10.696;2022-07-10T11:32:07;18.70;99.90
30572;DHT22;17348;50.948;10.696;2022-07-10T11:35:11;18.70;99.40
30572;DHT22;17348;50.948;10.696;2022-07-10T11:38:20;18.80;99.40
30572;DHT22;17348;50.948;10.696;2022-07-10T11:41:26;18.60;98.80
30572;DHT22;17348;50.948;10.696;2022-07-10T11:44:29;18.60;99.30
30572;DHT22;17348;50.948;10.696;2022-07-10T11:47:31;18.50;99.50
30572;DHT22;17348;50.948;10.696;2022-07-10T11:50:37;18.70;99.90
30572;DHT22;17348;50.948;10.696;2022-07-10T11:53:52;18.90;99.80
30572;DHT22;17348;50.948;10.696;2022-07-10T11:56:55;19.10;98.70
30572;DHT22;17348;50.948;10.696;2022-07-10T11:59:57;19.20;98.50
30572;DHT22;17348;50.948;10.696;2022-07-10T12:03:16;19.20;98.50
30572;DHT22;17348;50.948;10.696;2022-07-10T12:06:18;19.40;97.70
30572;DHT22;17348;50.948;10.696;2022-07-10T12:09:24;19.40;97.90
30572;DHT22;17348;50.948;10.696;2022-07-10T12:12:26;19.50;97.70
30572;DHT22;17348;50.948;10.696;2022-07-10T12:15:35;19.40;98.00
30572;DHT22;17348;50.948;10.696;2022-07-10T12:18:39;19.60;98.30
30572;DHT22;17348;50.948;10.696;2022-07-10T12:21:43;19.80;97.90
30572;DHT22;17348;50.948;10.696;2022-07-10T12:24:48;19.90;97.60
30572;DHT22;17348;50.948;10.696;2022-07-10T12:27:55;20.20;97.90
30572;DHT22;17348;50.948;10.696;2022-07-10T12:31:00;20.40;96.80
30572;DHT22;17348;50.948;10.696;2022-07-10T12:34:04;20.40;96.80
30572;DHT22;17348;50.948;10.696;2022-07-10T12:37:09;20.30;97.20
30572;DHT22;17348;50.948;10.696;2022-07-10T12:40:29;20.10;96.60
30572;DHT22;17348;50.948;10.696;2022-07-10T12:43:32;19.80;97.20
30572;DHT22;17348;50.948;10.696;2022-07-10T12:46:34;19.70;97.50
30572;DHT22;17348;50.948;10.696;2022-07-10T12:49:54;19.80;98.00
30572;DHT22;17348;50.948;10.696;2022-07-10T12:53:09;19.90;97.50
30572;DHT22;17348;50.948;10.696;2022-07-10T12:56:30;19.90;96.90
30572;DHT22;17348;50.948;10.696;2022-07-10T12:59:33;20.00;96.80
30572;DHT22;17348;50.948;10.696;2022-07-10T13:02:36;20.00;97.40
30572;DHT22;17348;50.948;10.696;2022-07-10T13:05:39;19.90;98.10
30572;DHT22;17348;50.948;10.696;2022-07-10T13:08:44;19.90;97.80
30572;DHT22;17348;50.948;10.696;2022-07-10T13:11:49;19.90;97.50
30572;DHT22;17348;50.948;10.696;2022-07-10T13:14:52;19.70;97.60
30572;DHT22;17348;50.948;10.696;2022-07-10T13:17:54;19.80;98.20
30572;DHT22;17348;50.948;10.696;2022-07-10T13:20:57;19.80;97.50
30572;DHT22;17348;50.948;10.696;2022-07-10T13:24:00;19.90;97.80
30572;DHT22;17348;50.948;10.696;2022-07-10T13:27:04;20.10;97.40
30572;DHT22;17348;50.948;10.696;2022-07-10T13:30:07;20.00;97.50
30572;DHT22;17348;50.948;10.696;2022-07-10T13:33:10;20.00;97.50
30572;DHT22;17348;50.948;10.696;2022-07-10T13:36:12;20.20;96.90
30572;DHT22;17348;50.948;10.696;2022-07-10T13:39:14;20.20;96.50
30572;DHT22;17348;50.948;10.696;2022-07-10T13:42:18;20.40;96.10
30572;DHT22;17348;50.948;10.696;2022-07-10T13:45:21;20.60;96.30
30572;DHT22;17348;50.948;10.696;2022-07-10T13:48:24;20.70;95.50
30572;DHT22;17348;50.948;10.696;2022-07-10T13:51:27;20.30;95.50
30572;DHT22;17348;50.948;10.696;2022-07-10T13:54:29;20.10;95.80
30572;DHT22;17348;50.948;10.696;2022-07-10T13:57:33;19.90;96.30
30572;DHT22;17348;50.948;10.696;2022-07-10T14:00:39;19.90;97.00
30572;DHT22;17348;50.948;10.696;2022-07-10T14:03:41;20.10;96.40
30572;DHT22;17348;50.948;10.696;2022-07-10T14:06:43;20.10;95.70
30572;DHT22;17348;50.948;10.696;2022-07-10T14:09:48;20.10;95.60
30572;DHT22;17348;50.948;10.696;2022-07-10T14:12:53;20.10;95.60
30572;DHT22;17348;50.948;10.696;2022-07-10T14:15:56;20.20;96.10
30572;DHT22;17348;50.948;10.696;2022-07-10T14:18:58;20.40;95.00
30572;DHT22;17348;50.948;10.696;2022-07-10T14:22:00;20.50;94.70
30572;DHT22;17348;50.948;10.696;2022-07-10T14:25:04;20.30;94.90
30572;DHT22;17348;50.948;10.696;2022-07-10T14:28:08;20.10;95.30
30572;DHT22;17348;50.948;10.696;2022-07-10T14:31:10;20.00;95.60
30572;DHT22;17348;50.948;10.696;2022-07-10T14:34:12;19.90;96.30
30572;DHT22;17348;50.948;10.696;2022-07-10T14:37:15;19.80;96.70
30572;DHT22;17348;50.948;10.696;2022-07-10T14:40:17;19.70;97.00
30572;DHT22;17348;50.948;10.696;2022-07-10T14:43:23;19.80;97.30
30572;DHT22;17348;50.948;10.696;2022-07-10T14:46:26;19.70;97.40
30572;DHT22;17348;50.948;10.696;2022-07-10T14:49:29;19.70;97.40
30572;DHT22;17348;50.948;10.696;2022-07-10T14:52:31;19.50;97.70
30572;DHT22;17348;50.948;10.696;2022-07-10T14:55:34;19.40;98.00
30572;DHT22;17348;50.948;10.696;2022-07-10T14:58:38;19.20;98.30
30572;DHT22;17348;50.948;10.696;2022-07-10T15:01:40;19.20;98.60
30572;DHT22;17348;50.948;10.696;2022-07-10T15:04:43;19.20;98.90
30572;DHT22;17348;50.948;10.696;2022-07-10T15:07:45;19.10;99.00
30572;DHT22;17348;50.948;10.696;2022-07-10T15:10:47;19.10;99.20
30572;DHT22;17348;50.948;10.696;2022-07-10T15:13:51;19.00;99.40
30572;DHT22;17348;50.948;10.696;2022-07-10T15:16:59;18.90;99.80
30572;DHT22;17348;50.948;10.696;2022-07-10T15:20:02;18.90;99.90
30572;DHT22;17348;50.948;10.696;2022-07-10T15:23:04;18.80;99.90
30572;DHT22;17348;50.948;10.696;2022-07-10T15:26:07;18.70;99.90
30572;DHT22;17348;50.948;10.696;2022-07-10T15:29:10;18.70;99.90
30572;DHT22;17348;50.948;10.696;2022-07-10T15:32:13;18.70;99.90
30572;DHT22;17348;50.948;10.696;2022-07-10T15:35:15;18.60;99.90
30572;DHT22;17348;50.948;10.696;2022-07-10T15:38:18;18.50;99.90
30572;DHT22;17348;50.948;10.696;2022-07-10T15:41:20;18.50;99.90
30572;DHT22;17348;50.948;10.696;2022-07-10T15:44:26;18.30;99.90
30572;DHT22;17348;50.948;10.696;2022-07-10T15:47:28;18.20;99.90
30572;DHT22;17348;50.948;10.696;2022-07-10T15:50:31;18.10;99.90
30572;DHT22;17348;50.948;10.696;2022-07-10T15:53:33;18.10;99.90
30572;DHT22;17348;50.948;10.696;2022-07-10T15:56:35;18.00;99.90
30572;DHT22;17348;50.948;10.696;2022-07-10T15:59:39;17.90;99.90
30572;DHT22;17348;50.948;10.696;2022-07-10T16:02:42;17.90;99.90
30572;DHT22;17348;50.948;10.696;2022-07-10T16:05:46;17.80;99.90
30572;DHT22;17348;50.948;10.696;2022-07-10T16:08:48;17.80;99.90
30572;DHT22;17348;50.948;10.696;2022-07-10T16:11:51;17.70;99.90
30572;DHT22;17348;50.948;10.696;2022-07-10T16:14:55;17.60;99.90
30572;DHT22;17348;50.948;10.696;2022-07-10T16:17:57;17.50;99.90
30572;DHT22;17348;50.948;10.696;2022-07-10T16:21:00;17.40;99.90
30572;DHT22;17348;50.948;10.696;2022-07-10T16:24:03;17.40;99.90
30572;DHT22;17348;50.948;10.696;2022-07-10T16:27:05;17.30;99.90
30572;DHT22;17348;50.948;10.696;2022-07-10T16:30:10;17.20;99.90
30572;DHT22;17348;50.948;10.696;2022-07-10T16:33:12;17.20;99.90
30572;DHT22;17348;50.948;10.696;2022-07-10T16:36:14;17.10;99.90
30572;DHT22;17348;50.948;10.696;2022-07-10T16:39:17;17.10;99.90
30572;DHT22;17348;50.948;10.696;2022-07-10T16:42:19;17.00;99.90
30572;DHT22;17348;50.948;10.696;2022-07-10T16:45:23;17.00;99.90
30572;DHT22;17348;50.948;10.696;2022-07-10T16:48:26;17.20;99.90
30572;DHT22;17348;50.948;10.696;2022-07-10T16:51:29;17.20;99.90
30572;DHT22;17348;50.948;10.696;2022-07-10T16:54:31;17.40;99.90
30572;DHT22;17348;50.948;10.696;2022-07-10T16:57:33;17.40;99.90
30572;DHT22;17348;50.948;10.696;2022-07-10T17:00:37;17.50;99.90
30572;DHT22;17348;50.948;10.696;2022-07-10T17:03:39;17.50;99.90
30572;DHT22;17348;50.948;10.696;2022-07-10T17:06:42;17.60;99.90
30572;DHT22;17348;50.948;10.696;2022-07-10T17:09:45;17.40;99.90
30572;DHT22;17348;50.948;10.696;2022-07-10T17:12:47;17.30;99.90
30572;DHT22;17348;50.948;10.696;2022-07-10T17:15:51;17.30;99.90
30572;DHT22;17348;50.948;10.696;2022-07-10T17:18:54;17.20;99.90
30572;DHT22;17348;50.948;10.696;2022-07-10T17:21:59;17.20;99.90
30572;DHT22;17348;50.948;10.696;2022-07-10T17:25:02;17.10;99.90
30572;DHT22;17348;50.948;10.696;2022-07-10T17:28:04;17.10;99.90
30572;DHT22;17348;50.948;10.696;2022-07-10T17:31:08;17.10;99.90
30572;DHT22;17348;50.948;10.696;2022-07-10T17:34:11;17.10;99.90
30572;DHT22;17348;50.948;10.696;2022-07-10T17:37:14;17.10;99.90
30572;DHT22;17348;50.948;10.696;2022-07-10T17:40:16;17.10;99.90
30572;DHT22;17348;50.948;10.696;2022-07-10T17:43:18;17.00;99.90
30572;DHT22;17348;50.948;10.696;2022-07-10T17:46:22;17.00;99.90
30572;DHT22;17348;50.948;10.696;2022-07-10T17:49:25;16.90;99.90
30572;DHT22;17348;50.948;10.696;2022-07-10T17:52:27;16.90;99.90
30572;DHT22;17348;50.948;10.696;2022-07-10T17:55:29;16.80;99.90
30572;DHT22;17348;50.948;10.696;2022-07-10T17:58:32;16.80;99.90
30572;DHT22;17348;50.948;10.696;2022-07-10T18:01:36;16.70;99.90
30572;DHT22;17348;50.948;10.696;2022-07-10T18:04:38;16.60;99.90
30572;DHT22;17348;50.948;10.696;2022-07-10T18:07:41;16.40;99.90
30572;DHT22;17348;50.948;10.696;2022-07-10T18:10:43;16.40;99.90
30572;DHT22;17348;50.948;10.696;2022-07-10T18:13:46;16.30;99.90
30572;DHT22;17348;50.948;10.696;2022-07-10T18:16:50;16.20;99.90
30572;DHT22;17348;50.948;10.696;2022-07-10T18:19:52;16.20;99.90
30572;DHT22;17348;50.948;10.696;2022-07-10T18:22:58;16.10;99.90
30572;DHT22;17348;50.948;10.696;2022-07-10T18:26:01;16.10;99.90
30572;DHT22;17348;50.948;10.696;2022-07-10T18:29:03;16.10;99.90
30572;DHT22;17348;50.948;10.696;2022-07-10T18:32:08;16.10;99.90
30572;DHT22;17348;50.948;10.696;2022-07-10T18:35:10;16.10;99.90
30572;DHT22;17348;50.948;10.696;2022-07-10T18:38:11;16.10;99.90
30572;DHT22;17348;50.948;10.696;2022-07-10T18:41:14;16.10;99.90
30572;DHT22;17348;50.948;10.696;2022-07-10T18:44:16;16.00;99.90
30572;DHT22;17348;50.948;10.696;2022-07-10T18:47:20;16.00;99.90
30572;DHT22;17348;50.948;10.696;2022-07-10T18:50:22;16.00;99.90
30572;DHT22;17348;50.948;10.696;2022-07-10T18:53:25;15.90;99.90
30572;DHT22;17348;50.948;10.696;2022-07-10T18:56:27;15.90;99.90
30572;DHT22;17348;50.948;10.696;2022-07-10T18:59:30;15.80;99.90
30572;DHT22;17348;50.948;10.696;2022-07-10T19:02:33;15.90;99.90